Time;durP1;ratioP1;P1;durP2;ratioP2;P2;SDS_P1;SDS_P2;PMS_P1;PMS_P2;Temp;Humidity;BMP_temperature;BMP_pressure;BME280_temperature;BME280_humidity;BME280_pressure;Samples;Min_cycle;Max_cycle;Signal;HPM_P1;HPM_P2
2023/05/06 00:02:00;;;;;;;94.80;45.95;;;11.30;99.90;;;;;;4947755;28;20378;-76
2023/05/06 00:04:27;;;;;;;101.85;47.22;;;11.20;99.90;;;;;;4949063;28;20419;-78
2023/05/06 00:06:55;;;;;;;98.55;46.95;;;11.30;99.90;;;;;;4966391;28;20038;-78
2023/05/06 00:09:25;;;;;;;83.28;42.95;;;11.40;99.90;;;;;;4958753;28;20134;-76
2023/05/06 00:11:52;;;;;;;102.40;47.78;;;11.50;99.90;;;;;;4954004;28;20047;-77
2023/05/06 00:14:19;;;;;;;102.05;49.60;;;11.50;99.90;;;;;;4965630;28;20589;-77
2023/05/06 00:16:45;;;;;;;101.68;48.63;;;11.40;99.90;;;;;;4964014;28;20053;-76
2023/05/06 00:19:12;;;;;;;111.50;50.97;;;11.20;99.90;;;;;;4963061;28;20047;-77
2023/05/06 00:21:41;;;;;;;111.97;50.90;;;11.20;99.90;;;;;;4937150;28;20039;-77
2023/05/06 00:24:08;;;;;;;111.10;50.17;;;11.40;99.90;;;;;;4955226;28;20047;-78
2023/05/06 00:26:34;;;;;;;118.07;53.63;;;11.50;99.90;;;;;;4945287;28;20089;-77
2023/05/06 00:29:01;;;;;;;139.45;57.95;;;11.40;99.90;;;;;;4941158;28;20611;-77
2023/05/06 00:31:28;;;;;;;124.95;55.78;;;11.40;99.90;;;;;;4946859;28;20038;-78
2023/05/06 00:33:55;;;;;;;134.52;53.53;;;11.30;99.90;;;;;;4961045;28;20054;-77
2023/05/06 00:36:22;;;;;;;128.95;54.88;;;11.20;99.90;;;;;;4946937;28;20047;-76
2023/05/06 00:38:49;;;;;;;128.50;54.63;;;11.20;99.90;;;;;;4967444;28;20597;-77
2023/05/06 00:41:16;;;;;;;116.75;54.40;;;11.20;99.90;;;;;;4944890;28;20130;-77
2023/05/06 00:43:43;;;;;;;112.40;50.40;;;11.20;99.90;;;;;;4946606;28;20042;-77
2023/05/06 00:46:10;;;;;;;115.90;49.03;;;11.20;99.90;;;;;;4949074;28;20708;-77
2023/05/06 00:48:37;;;;;;;95.65;45.78;;;11.30;99.90;;;;;;4963309;28;20056;-77
2023/05/06 00:51:05;;;;;;;88.60;42.42;;;11.20;99.90;;;;;;4928613;28;20043;-77
2023/05/06 00:53:32;;;;;;;69.80;37.15;;;11.20;99.90;;;;;;4944232;28;20063;-77
2023/05/06 00:55:59;;;;;;;61.92;34.35;;;11.20;99.90;;;;;;4944371;28;20050;-77
2023/05/06 00:58:25;;;;;;;72.97;36.58;;;11.10;99.90;;;;;;4959503;28;20047;-77
2023/05/06 01:00:54;;;;;;;73.85;35.15;;;11.10;99.90;;;;;;4941872;28;20039;-78
2023/05/06 01:03:21;;;;;;;70.75;35.33;;;11.00;99.90;;;;;;4945228;28;20658;-77
2023/05/06 01:06:10;;;;;;;67.28;36.08;;;11.10;99.90;;;;;;4963095;28;20039;-77
2023/05/06 01:08:48;;;;;;;63.08;35.78;;;11.10;99.90;;;;;;4941390;28;20065;-77
2023/05/06 01:11:27;;;;;;;60.97;32.60;;;11.10;99.90;;;;;;4961071;28;20740;-77
2023/05/06 01:14:06;;;;;;;61.47;34.17;;;11.20;99.90;;;;;;4963271;28;20066;-77
2023/05/06 01:16:38;;;;;;;76.60;36.55;;;11.30;99.90;;;;;;4945858;28;20077;-78
2023/05/06 01:19:08;;;;;;;82.63;39.38;;;11.40;99.90;;;;;;4945229;28;20047;-77
2023/05/06 01:21:40;;;;;;;73.75;37.65;;;11.40;99.90;;;;;;4962358;28;20051;-78
2023/05/06 01:24:07;;;;;;;70.43;35.15;;;11.30;99.90;;;;;;4961631;28;20043;-78
2023/05/06 01:26:35;;;;;;;60.95;30.25;;;11.30;99.90;;;;;;4962527;28;20439;-78
2023/05/06 01:29:02;;;;;;;59.95;31.73;;;11.10;99.90;;;;;;4945151;28;20616;-77
2023/05/06 01:31:41;;;;;;;64.65;32.75;;;11.10;99.90;;;;;;4961466;28;20101;-77
2023/05/06 01:34:26;;;;;;;66.38;32.03;;;11.10;99.90;;;;;;4961412;28;20519;-77
2023/05/06 01:37:37;;;;;;;66.47;32.90;;;11.10;99.90;;;;;;4958941;28;20038;-78
2023/05/06 01:40:06;;;;;;;65.45;32.35;;;11.10;99.90;;;;;;4900118;29;20139;-77
2023/05/06 01:42:35;;;;;;;71.68;33.25;;;11.00;99.90;;;;;;4900235;29;20048;-77
2023/05/06 01:45:03;;;;;;;69.88;34.20;;;11.10;99.90;;;;;;4926028;28;20134;-77
2023/05/06 01:47:31;;;;;;;71.53;34.50;;;11.10;99.90;;;;;;4929861;28;20146;-78
2023/05/06 01:49:59;;;;;;;67.95;36.25;;;11.20;99.90;;;;;;4966441;28;20039;-78
2023/05/06 01:52:26;;;;;;;65.20;34.70;;;11.20;99.90;;;;;;4930345;28;20047;-77
2023/05/06 01:54:52;;;;;;;69.30;35.38;;;11.30;99.90;;;;;;4947404;28;20480;-77
2023/05/06 01:57:19;;;;;;;68.93;34.15;;;11.30;99.90;;;;;;4960548;28;20035;-78
2023/05/06 01:59:46;;;;;;;66.32;35.78;;;11.30;99.90;;;;;;4960619;28;20049;-77
2023/05/06 02:02:12;;;;;;;77.38;37.15;;;11.40;99.90;;;;;;4947760;28;20455;-77
2023/05/06 02:04:39;;;;;;;64.35;34.47;;;11.40;99.90;;;;;;4950349;28;20047;-77
2023/05/06 02:07:06;;;;;;;77.57;36.33;;;11.30;99.90;;;;;;4944535;28;20043;-77
2023/05/06 02:09:33;;;;;;;73.00;36.33;;;11.30;99.90;;;;;;4970514;28;20051;-78
2023/05/06 02:12:01;;;;;;;72.65;37.33;;;11.20;99.90;;;;;;4941005;28;20071;-77
2023/05/06 02:14:28;;;;;;;70.65;34.65;;;11.00;99.90;;;;;;4959217;28;20130;-77
2023/05/06 02:16:56;;;;;;;68.40;34.92;;;10.90;99.90;;;;;;4942613;28;20770;-78
2023/05/06 02:19:23;;;;;;;82.03;35.35;;;10.90;99.90;;;;;;4943643;28;20039;-76
2023/05/06 02:21:49;;;;;;;71.93;32.95;;;10.80;99.90;;;;;;4945152;28;20130;-77
2023/05/06 02:24:16;;;;;;;83.07;34.63;;;10.80;99.90;;;;;;4943104;28;20039;-77
2023/05/06 02:26:44;;;;;;;76.22;33.65;;;10.80;99.90;;;;;;4964497;28;20512;-77
2023/05/06 02:29:10;;;;;;;74.28;33.47;;;10.90;99.90;;;;;;4957958;28;20038;-77
2023/05/06 02:31:37;;;;;;;69.43;33.25;;;10.90;99.90;;;;;;4958550;28;20051;-77
2023/05/06 02:34:04;;;;;;;68.97;33.80;;;11.00;99.90;;;;;;4960299;28;20064;-77
2023/05/06 02:36:32;;;;;;;60.15;31.02;;;11.00;99.90;;;;;;4944548;28;20783;-77
2023/05/06 02:38:58;;;;;;;72.10;33.00;;;11.00;99.90;;;;;;4961812;28;20035;-77
2023/05/06 02:41:25;;;;;;;70.47;31.88;;;11.00;99.90;;;;;;4959588;28;20049;-77
2023/05/06 02:43:51;;;;;;;65.25;31.08;;;11.00;99.90;;;;;;4958753;28;20043;-77
2023/05/06 02:46:18;;;;;;;63.05;28.42;;;11.00;99.90;;;;;;4944220;28;20126;-77
2023/05/06 02:48:45;;;;;;;69.55;32.28;;;10.90;99.90;;;;;;4960286;28;20499;-77
2023/05/06 02:51:12;;;;;;;66.53;32.58;;;10.90;99.90;;;;;;4942736;28;20496;-77
2023/05/06 02:53:38;;;;;;;68.78;32.47;;;11.00;99.90;;;;;;4951381;28;20658;-76
2023/05/06 02:56:05;;;;;;;68.00;32.13;;;10.90;99.90;;;;;;4943844;28;20499;-77
2023/05/06 02:58:32;;;;;;;78.25;36.65;;;10.90;99.90;;;;;;4944335;28;20047;-76
2023/05/06 03:00:58;;;;;;;82.13;35.67;;;11.00;99.90;;;;;;4943120;28;20710;-77
2023/05/06 03:03:25;;;;;;;75.97;35.33;;;11.00;99.90;;;;;;4943679;28;20043;-77
2023/05/06 03:05:52;;;;;;;87.93;37.13;;;11.00;99.90;;;;;;4959354;28;20126;-77
2023/05/06 03:08:18;;;;;;;76.05;36.35;;;10.90;99.90;;;;;;4961076;28;20043;-78
2023/05/06 03:10:45;;;;;;;81.13;36.70;;;10.90;99.90;;;;;;4963896;28;20153;-76
2023/05/06 03:13:14;;;;;;;91.00;38.13;;;10.80;99.90;;;;;;4966131;28;20043;-77
2023/05/06 03:15:41;;;;;;;85.28;38.25;;;10.80;99.90;;;;;;4960194;28;20146;-76
2023/05/06 03:18:08;;;;;;;89.47;36.75;;;10.70;99.90;;;;;;4960452;28;20501;-76
2023/05/06 03:20:35;;;;;;;96.72;38.80;;;10.60;99.90;;;;;;4926333;28;20047;-76
2023/05/06 03:23:02;;;;;;;87.55;37.60;;;10.70;99.90;;;;;;4960735;28;20051;-77
2023/05/06 03:25:29;;;;;;;100.63;39.95;;;10.60;99.90;;;;;;4967346;28;20063;-77
2023/05/06 03:27:56;;;;;;;96.50;38.92;;;10.70;99.90;;;;;;4959773;28;20043;-77
2023/05/06 03:30:23;;;;;;;90.30;40.03;;;10.60;99.90;;;;;;4945502;28;20042;-77
2023/05/06 03:32:54;;;;;;;101.53;42.05;;;10.60;99.90;;;;;;4959170;28;20046;-77
2023/05/06 03:35:27;;;;;;;101.68;38.05;;;10.60;99.90;;;;;;4959332;28;20043;-77
2023/05/06 03:37:57;;;;;;;100.03;39.80;;;10.50;99.90;;;;;;4946782;28;20047;-77
2023/05/06 03:40:27;;;;;;;81.70;38.65;;;10.50;99.90;;;;;;4966709;28;20520;-77
2023/05/06 03:42:55;;;;;;;86.45;37.58;;;10.50;99.90;;;;;;4959424;28;20118;-77
2023/05/06 03:45:22;;;;;;;95.50;39.05;;;10.40;99.90;;;;;;4945516;28;20045;-76
2023/05/06 03:47:49;;;;;;;92.45;39.75;;;10.40;99.90;;;;;;4959052;28;20050;-77
2023/05/06 03:50:18;;;;;;;100.78;39.00;;;10.30;99.90;;;;;;4958945;28;20110;-77
2023/05/06 03:52:45;;;;;;;84.85;37.30;;;10.30;99.90;;;;;;4959181;28;20043;-77
2023/05/06 03:55:13;;;;;;;89.55;39.40;;;10.30;99.90;;;;;;4959708;28;20050;-77
2023/05/06 03:57:40;;;;;;;93.88;39.47;;;10.40;99.90;;;;;;4964649;28;20047;-77
2023/05/06 04:00:08;;;;;;;100.53;39.47;;;10.40;99.90;;;;;;4942325;28;20071;-76
2023/05/06 04:02:42;;;;;;;106.88;39.67;;;10.40;99.90;;;;;;4943265;28;20042;-76
2023/05/06 04:05:15;;;;;;;99.90;39.53;;;10.40;99.90;;;;;;4961684;28;20049;-77
2023/05/06 04:07:43;;;;;;;106.93;39.08;;;10.20;99.90;;;;;;4930599;28;20043;-77
2023/05/06 04:10:10;;;;;;;126.78;41.10;;;10.30;99.90;;;;;;4962389;28;20054;-77
2023/05/06 04:12:38;;;;;;;116.30;40.55;;;10.20;99.90;;;;;;4958520;28;20047;-77
2023/05/06 04:15:06;;;;;;;132.90;41.15;;;10.30;99.90;;;;;;4954557;28;20096;-77
2023/05/06 04:17:33;;;;;;;109.65;37.90;;;10.30;99.90;;;;;;4964099;28;20067;-77
2023/05/06 04:20:10;;;;;;;100.65;38.47;;;10.10;99.90;;;;;;4950342;28;20062;-76
2023/05/06 04:22:38;;;;;;;110.20;37.13;;;10.00;99.90;;;;;;4962335;28;20043;-78
2023/05/06 04:25:05;;;;;;;113.78;39.75;;;9.90;99.90;;;;;;4960256;28;20043;-77
2023/05/06 04:27:35;;;;;;;130.30;40.78;;;9.90;99.90;;;;;;4934729;28;20158;-77
2023/05/06 04:30:05;;;;;;;130.25;42.08;;;10.00;99.90;;;;;;4931252;28;20483;-77
2023/05/06 04:32:32;;;;;;;154.65;42.42;;;10.00;99.90;;;;;;4951819;28;20362;-76
2023/05/06 04:35:00;;;;;;;145.63;43.55;;;9.90;99.90;;;;;;4946661;28;20058;-76
2023/05/06 04:37:27;;;;;;;173.55;47.05;;;9.80;99.90;;;;;;4962051;28;20130;-76
2023/05/06 04:40:05;;;;;;;186.60;47.55;;;9.90;99.90;;;;;;4962599;28;20660;-77
2023/05/06 04:42:34;;;;;;;338.70;55.08;;;10.10;99.90;;;;;;4950765;28;20685;-76
2023/05/06 04:45:10;;;;;;;411.52;61.13;;;10.00;99.90;;;;;;4945806;28;20499;-76
2023/05/06 04:47:39;;;;;;;298.55;52.90;;;10.00;99.90;;;;;;4937290;28;20047;-76
2023/05/06 04:50:07;;;;;;;532.50;64.25;;;9.90;99.90;;;;;;4974844;28;20050;-77
2023/05/06 04:52:35;;;;;;;377.83;56.25;;;10.00;99.90;;;;;;4961823;28;20050;-77
2023/05/06 04:55:02;;;;;;;339.98;54.97;;;10.00;99.90;;;;;;4949588;28;20457;-77
2023/05/06 04:57:32;;;;;;;370.30;58.72;;;10.00;99.90;;;;;;4959987;28;20050;-77
2023/05/06 04:59:59;;;;;;;493.92;62.95;;;10.00;99.90;;;;;;4962435;28;20129;-77
2023/05/06 05:02:25;;;;;;;575.08;61.70;;;9.90;99.90;;;;;;4963867;28;20055;-76
2023/05/06 05:04:52;;;;;;;535.88;60.45;;;9.80;99.90;;;;;;4971393;28;20046;-76
2023/05/06 05:07:19;;;;;;;502.95;56.83;;;9.90;99.90;;;;;;4964915;28;20035;-76
2023/05/06 05:09:46;;;;;;;386.77;52.17;;;10.00;99.90;;;;;;4951450;28;20079;-76
2023/05/06 05:12:13;;;;;;;373.17;56.95;;;10.00;99.90;;;;;;4931827;28;20042;-76
2023/05/06 05:14:46;;;;;;;491.60;61.63;;;10.00;99.90;;;;;;4960765;28;20054;-77
2023/05/06 05:17:13;;;;;;;421.02;59.63;;;10.10;99.90;;;;;;4945264;28;20046;-76
2023/05/06 05:19:40;;;;;;;398.23;54.10;;;10.10;99.90;;;;;;4942579;28;20689;-77
2023/05/06 05:22:08;;;;;;;505.85;60.95;;;10.20;99.90;;;;;;4944822;28;20089;-77
2023/05/06 05:24:34;;;;;;;452.60;56.88;;;10.20;99.90;;;;;;4959006;28;20821;-76
2023/05/06 05:27:01;;;;;;;388.42;53.20;;;10.20;99.90;;;;;;4944694;28;20049;-77
2023/05/06 05:29:28;;;;;;;349.35;50.67;;;10.30;99.90;;;;;;4959475;28;20102;-76
2023/05/06 05:31:57;;;;;;;250.50;45.53;;;10.20;99.90;;;;;;4942680;28;20070;-75
2023/05/06 05:34:23;;;;;;;482.65;60.72;;;10.40;99.90;;;;;;4961680;28;20519;-76
2023/05/06 05:36:50;;;;;;;512.45;61.92;;;10.50;99.90;;;;;;4944596;28;21256;-77
2023/05/06 05:39:17;;;;;;;330.27;52.22;;;10.50;99.90;;;;;;4961545;28;20043;-76
2023/05/06 05:41:46;;;;;;;275.67;47.78;;;10.50;99.90;;;;;;4959161;28;20146;-77
2023/05/06 05:44:13;;;;;;;284.25;48.60;;;10.60;99.90;;;;;;4961954;28;20441;-77
2023/05/06 05:46:41;;;;;;;447.23;65.72;;;10.70;99.90;;;;;;4959843;28;20065;-77
2023/05/06 05:49:11;;;;;;;245.10;49.22;;;10.70;99.90;;;;;;4958272;28;20138;-78
2023/05/06 05:51:38;;;;;;;272.38;48.00;;;10.60;99.90;;;;;;4945057;28;20047;-76
2023/05/06 05:54:06;;;;;;;208.77;49.17;;;10.70;99.90;;;;;;4960772;28;20038;-76
2023/05/06 05:56:34;;;;;;;217.60;48.15;;;10.50;99.90;;;;;;4945878;28;20050;-76
2023/05/06 05:59:00;;;;;;;294.13;52.03;;;10.70;99.90;;;;;;4947152;28;20704;-77
2023/05/06 06:01:27;;;;;;;207.73;44.83;;;10.80;99.90;;;;;;4957218;28;20051;-76
2023/05/06 06:03:55;;;;;;;154.00;39.50;;;10.80;99.90;;;;;;4962659;28;20137;-76
2023/05/06 06:06:23;;;;;;;319.92;55.03;;;10.90;99.90;;;;;;4960428;28;20038;-76
2023/05/06 06:08:51;;;;;;;143.00;36.58;;;11.00;99.90;;;;;;4945063;28;20070;-77
2023/05/06 06:11:18;;;;;;;155.80;35.67;;;11.00;99.90;;;;;;4946084;28;20058;-76
2023/05/06 06:13:45;;;;;;;315.92;52.70;;;11.10;99.90;;;;;;4964180;28;20052;-77
2023/05/06 06:16:12;;;;;;;345.30;51.85;;;11.20;99.90;;;;;;4949045;28;20047;-76
2023/05/06 06:18:39;;;;;;;156.32;34.97;;;11.30;99.90;;;;;;4961685;28;20057;-77
2023/05/06 06:21:06;;;;;;;104.80;29.40;;;11.30;99.90;;;;;;4932156;28;20062;-77
2023/05/06 06:23:33;;;;;;;56.22;22.25;;;11.50;99.90;;;;;;4948558;28;20057;-77
2023/05/06 06:26:02;;;;;;;64.53;25.48;;;11.60;99.90;;;;;;4947226;28;20070;-77
2023/05/06 06:28:31;;;;;;;148.77;32.35;;;11.50;99.90;;;;;;4958707;28;20055;-78
2023/05/06 06:30:58;;;;;;;57.70;25.38;;;11.50;99.90;;;;;;4959580;28;20143;-77
2023/05/06 06:33:25;;;;;;;52.88;25.38;;;11.60;99.90;;;;;;4960230;28;20054;-77
2023/05/06 06:35:52;;;;;;;59.72;24.63;;;11.60;99.90;;;;;;4952569;28;20732;-78
2023/05/06 06:38:19;;;;;;;52.45;25.00;;;11.60;99.90;;;;;;4963598;28;20047;-77
2023/05/06 06:40:46;;;;;;;50.10;24.45;;;11.60;99.90;;;;;;4961243;28;20672;-78
2023/05/06 06:43:13;;;;;;;47.28;23.30;;;11.50;99.90;;;;;;4962958;28;20047;-78
2023/05/06 06:45:55;;;;;;;49.40;23.98;;;11.60;99.90;;;;;;4953312;28;20143;-78
2023/05/06 06:48:22;;;;;;;46.45;23.58;;;11.60;99.90;;;;;;4962563;28;20141;-76
2023/05/06 06:50:49;;;;;;;45.13;23.73;;;11.70;99.90;;;;;;4944791;28;20046;-79
2023/05/06 06:53:16;;;;;;;46.67;22.60;;;11.80;99.90;;;;;;4947558;28;20121;-77
2023/05/06 06:55:44;;;;;;;48.10;24.48;;;11.80;99.90;;;;;;4962843;28;20047;-78
2023/05/06 06:58:11;;;;;;;45.58;23.00;;;11.90;99.90;;;;;;4966321;28;20480;-79
2023/05/06 07:00:37;;;;;;;37.03;20.80;;;12.00;99.90;;;;;;4953101;28;20043;-81
2023/05/06 07:03:04;;;;;;;36.97;20.98;;;12.10;99.90;;;;;;4963615;28;20046;-78
2023/05/06 07:05:31;;;;;;;41.45;19.70;;;11.80;99.90;;;;;;4953542;28;20129;-79
2023/05/06 07:07:58;;;;;;;36.75;20.20;;;11.50;99.90;;;;;;4946679;28;20685;-77
2023/05/06 07:10:24;;;;;;;34.33;20.67;;;11.70;99.90;;;;;;4963466;28;20053;-79
2023/05/06 07:12:51;;;;;;;29.52;20.23;;;11.80;99.90;;;;;;4946797;28;20039;-79
2023/05/06 07:15:18;;;;;;;31.95;20.48;;;11.90;99.90;;;;;;4961979;28;20141;-78
2023/05/06 07:17:45;;;;;;;31.13;21.33;;;12.20;99.90;;;;;;4960897;28;20038;-78
2023/05/06 07:20:12;;;;;;;23.45;18.58;;;12.40;99.90;;;;;;4955660;28;20630;-77
2023/05/06 07:22:40;;;;;;;32.20;21.60;;;12.70;99.90;;;;;;4937468;28;20327;-79
2023/05/06 07:25:07;;;;;;;26.63;22.95;;;13.20;99.90;;;;;;4961748;28;20047;-78
2023/05/06 07:27:34;;;;;;;33.08;26.40;;;13.50;99.90;;;;;;4960222;28;20070;-78
2023/05/06 07:30:05;;;;;;;31.52;28.40;;;13.80;99.90;;;;;;4948318;28;20047;-79
2023/05/06 07:32:32;;;;;;;30.63;27.92;;;14.20;99.90;;;;;;4948864;28;20050;-77
2023/05/06 07:34:59;;;;;;;31.48;28.63;;;14.30;99.90;;;;;;4954747;28;20054;-78
2023/05/06 07:37:25;;;;;;;33.63;30.83;;;14.70;99.90;;;;;;4962079;28;20050;-79
2023/05/06 07:39:52;;;;;;;34.70;31.65;;;15.20;99.90;;;;;;4963455;28;20054;-77
2023/05/06 07:42:19;;;;;;;39.03;35.97;;;15.50;99.90;;;;;;4967953;28;20045;-79
2023/05/06 07:44:46;;;;;;;38.33;35.60;;;15.80;99.90;;;;;;4962416;28;20081;-79
2023/05/06 07:47:26;;;;;;;38.97;36.38;;;15.90;99.90;;;;;;4947357;28;20043;-78
2023/05/06 07:49:53;;;;;;;40.60;37.90;;;16.10;99.90;;;;;;4935606;28;20062;-78
2023/05/06 07:52:21;;;;;;;39.67;37.15;;;15.80;99.90;;;;;;4950246;28;20269;-78
2023/05/06 07:54:49;;;;;;;40.83;38.17;;;16.00;99.90;;;;;;4947975;28;20042;-78
2023/05/06 07:57:15;;;;;;;33.70;31.20;;;16.60;99.90;;;;;;4927119;28;20669;-79
2023/05/06 07:59:45;;;;;;;32.75;30.33;;;16.80;99.90;;;;;;4946318;28;20047;-77
2023/05/06 08:02:12;;;;;;;37.47;35.17;;;16.30;99.90;;;;;;4962245;28;20041;-77
2023/05/06 08:04:39;;;;;;;39.85;37.45;;;16.30;99.90;;;;;;4963412;28;20381;-77
2023/05/06 08:07:06;;;;;;;39.47;37.15;;;16.60;99.90;;;;;;4957694;28;20126;-77
2023/05/06 08:09:33;;;;;;;39.60;37.22;;;16.90;99.90;;;;;;4951118;28;20073;-76
2023/05/06 08:12:00;;;;;;;39.38;36.90;;;16.70;99.90;;;;;;4953736;28;20667;-77
2023/05/06 08:14:26;;;;;;;40.13;37.63;;;17.20;99.90;;;;;;4950608;28;20122;-76
2023/05/06 08:16:53;;;;;;;40.13;37.72;;;17.80;99.90;;;;;;4944876;28;20860;-78
2023/05/06 08:19:22;;;;;;;40.95;38.47;;;18.10;99.90;;;;;;4947006;28;20034;-78
2023/05/06 08:21:49;;;;;;;42.08;39.58;;;18.40;99.90;;;;;;4960378;28;20456;-77
2023/05/06 08:24:16;;;;;;;37.90;35.65;;;18.60;99.90;;;;;;4961118;28;20050;-77
2023/05/06 08:26:42;;;;;;;39.72;37.33;;;18.60;99.90;;;;;;4951040;28;20042;-77
2023/05/06 08:29:09;;;;;;;40.88;38.58;;;18.80;99.90;;;;;;4945887;28;20051;-78
2023/05/06 08:31:36;;;;;;;40.95;38.65;;;18.70;99.90;;;;;;4961690;28;20680;-76
2023/05/06 08:34:02;;;;;;;39.47;37.17;;;18.60;99.90;;;;;;4948695;28;20047;-77
2023/05/06 08:36:29;;;;;;;41.80;38.85;;;18.90;99.90;;;;;;4962288;28;20062;-77
2023/05/06 08:38:56;;;;;;;40.92;38.63;;;19.30;99.90;;;;;;4953906;28;20046;-79
2023/05/06 08:41:25;;;;;;;43.60;41.20;;;19.30;99.90;;;;;;4963012;28;20053;-76
2023/05/06 08:43:53;;;;;;;42.53;40.05;;;19.40;99.90;;;;;;4965719;28;20101;-75
2023/05/06 08:46:20;;;;;;;41.90;39.40;;;18.80;99.90;;;;;;4960036;28;20061;-76
2023/05/06 08:48:47;;;;;;;41.70;39.00;;;19.00;99.90;;;;;;4970921;28;20046;-78
2023/05/06 08:51:14;;;;;;;42.47;39.97;;;19.30;99.90;;;;;;4955704;28;20500;-79
2023/05/06 08:53:48;;;;;;;40.80;38.45;;;19.60;99.90;;;;;;4949490;28;20193;-77
2023/05/06 08:56:15;;;;;;;43.47;40.83;;;19.80;99.90;;;;;;4948568;28;20628;-78
2023/05/06 08:58:45;;;;;;;41.35;38.90;;;20.00;99.90;;;;;;4959874;28;20051;-76
2023/05/06 09:01:13;;;;;;;39.22;37.13;;;19.80;99.90;;;;;;4955223;28;20197;-77
2023/05/06 09:03:39;;;;;;;38.28;36.13;;;19.90;99.90;;;;;;4966355;28;20049;-76
2023/05/06 09:06:06;;;;;;;39.45;37.28;;;19.70;99.90;;;;;;4961442;28;20707;-77
2023/05/06 09:08:33;;;;;;;39.15;37.05;;;19.80;99.90;;;;;;4946429;28;20055;-76
2023/05/06 09:11:00;;;;;;;38.47;36.45;;;19.90;99.90;;;;;;4963373;28;20059;-75
2023/05/06 09:13:26;;;;;;;37.53;35.15;;;19.90;99.90;;;;;;4961954;28;20078;-77
2023/05/06 09:15:54;;;;;;;36.00;33.70;;;20.20;99.90;;;;;;4965253;28;20043;-78
2023/05/06 09:18:21;;;;;;;37.20;34.97;;;20.10;99.90;;;;;;4949044;28;20471;-76
2023/05/06 09:20:48;;;;;;;35.58;33.58;;;20.20;99.90;;;;;;4945630;28;20046;-75
2023/05/06 09:23:17;;;;;;;32.45;30.35;;;20.20;99.90;;;;;;4962660;28;20063;-77
2023/05/06 09:25:45;;;;;;;36.03;34.03;;;20.10;99.90;;;;;;4943740;28;20066;-77
2023/05/06 09:28:12;;;;;;;35.58;33.53;;;19.80;99.90;;;;;;4963954;28;20544;-75
2023/05/06 09:30:45;;;;;;;35.00;33.00;;;19.30;99.90;;;;;;4929990;28;20041;-76
2023/05/06 09:33:12;;;;;;;33.50;31.35;;;18.90;99.90;;;;;;4961924;28;20046;-76
2023/05/06 09:35:40;;;;;;;31.90;29.85;;;18.50;99.90;;;;;;4962423;28;20046;-75
2023/05/06 09:38:08;;;;;;;31.75;29.95;;;18.20;99.90;;;;;;4950657;28;20043;-75
2023/05/06 09:40:36;;;;;;;32.05;30.15;;;17.90;99.90;;;;;;4964648;28;20059;-77
2023/05/06 09:43:04;;;;;;;36.58;34.53;;;18.00;99.90;;;;;;4947859;28;20134;-77
2023/05/06 09:45:31;;;;;;;34.78;32.88;;;18.20;99.90;;;;;;4961967;28;20142;-77
2023/05/06 09:47:58;;;;;;;35.10;32.83;;;18.50;99.90;;;;;;4935993;28;20050;-76
2023/05/06 09:50:25;;;;;;;35.75;33.65;;;18.90;99.90;;;;;;4963825;28;20051;-77
2023/05/06 09:52:54;;;;;;;35.92;33.83;;;19.40;99.90;;;;;;4948857;28;20049;-77
2023/05/06 09:55:25;;;;;;;36.15;34.08;;;19.70;99.90;;;;;;4942085;28;20041;-76
2023/05/06 09:57:52;;;;;;;37.17;35.17;;;19.90;99.90;;;;;;4957022;28;20038;-75
2023/05/06 10:00:25;;;;;;;37.80;35.65;;;20.20;99.90;;;;;;4961538;28;20285;-75
2023/05/06 10:02:53;;;;;;;38.10;36.00;;;20.60;99.90;;;;;;4945268;28;20076;-76
2023/05/06 10:05:21;;;;;;;38.05;35.45;;;20.70;99.90;;;;;;4946992;28;20046;-76
2023/05/06 10:07:49;;;;;;;36.60;34.40;;;21.10;99.90;;;;;;4961954;28;20055;-77
2023/05/06 10:10:15;;;;;;;39.70;37.50;;;21.10;99.90;;;;;;4949343;28;20099;-77
2023/05/06 10:12:43;;;;;;;38.53;36.25;;;21.00;99.90;;;;;;4945651;28;20050;-76
2023/05/06 10:15:10;;;;;;;40.30;38.03;;;21.30;99.90;;;;;;4946564;28;20039;-76
2023/05/06 10:17:39;;;;;;;41.03;38.72;;;21.40;99.90;;;;;;4961647;28;20051;-75
2023/05/06 10:20:08;;;;;;;39.47;37.38;;;21.00;99.90;;;;;;4962425;28;20073;-76
2023/05/06 10:22:58;;;;;;;39.33;36.92;;;20.70;99.90;;;;;;4945589;28;20043;-76
2023/05/06 10:25:38;;;;;;;38.97;36.78;;;20.90;99.90;;;;;;4958250;28;20047;-76
2023/05/06 10:28:10;;;;;;;39.15;37.08;;;21.20;99.90;;;;;;4961270;28;20046;-75
2023/05/06 10:30:57;;;;;;;42.30;39.90;;;20.80;99.90;;;;;;4949462;28;20206;-76
2023/05/06 10:33:25;;;;;;;38.90;36.50;;;19.70;99.90;;;;;;4946556;28;20051;-76
2023/05/06 10:35:59;;;;;;;40.60;38.30;;;20.40;99.90;;;;;;4962073;28;20062;-75
2023/05/06 10:38:34;;;;;;;38.13;35.83;;;19.80;99.90;;;;;;4961978;28;20094;-77
2023/05/06 10:41:01;;;;;;;;;;;19.80;99.90;;;;;;4945952;28;20030;-75
2023/05/06 10:43:32;;;;;;;34.28;32.25;;;20.50;99.90;;;;;;4964149;28;19928;-75
2023/05/06 10:46:16;;;;;;;35.15;33.00;;;20.70;99.90;;;;;;4956323;28;20452;-74
2023/05/06 10:49:05;;;;;;;40.70;38.50;;;20.80;99.90;;;;;;4962748;28;20082;-76
2023/05/06 10:51:41;;;;;;;35.33;32.97;;;20.80;99.90;;;;;;4943227;28;20495;-75
2023/05/06 10:54:09;;;;;;;35.50;33.50;;;21.00;99.90;;;;;;4960676;28;20082;-76
2023/05/06 10:57:06;;;;;;;42.60;40.10;;;20.80;99.90;;;;;;4933304;28;20050;-79
2023/05/06 10:59:32;;;;;;;35.00;32.72;;;20.60;99.90;;;;;;4960304;28;20046;-78
2023/05/06 11:02:03;;;;;;;39.90;37.53;;;20.80;99.90;;;;;;4946082;28;20043;-76
2023/05/06 11:04:30;;;;;;;39.85;37.55;;;20.40;99.90;;;;;;4947078;28;20135;-75
2023/05/06 11:07:09;;;;;;;37.50;35.08;;;20.30;99.90;;;;;;4957493;28;20038;-74
2023/05/06 11:09:56;;;;;;;39.38;37.28;;;20.50;99.90;;;;;;4947662;28;20252;-74
2023/05/06 11:12:47;;;;;;;38.90;36.78;;;20.50;99.90;;;;;;4961100;28;20053;-74
2023/05/06 11:15:25;;;;;;;32.42;30.45;;;21.10;99.90;;;;;;4950654;28;20619;-76
2023/05/06 11:17:55;;;;;;;37.22;35.10;;;21.30;99.90;;;;;;4963186;28;20059;-75
2023/05/06 11:20:24;;;;;;;41.08;38.53;;;21.30;99.90;;;;;;4961793;28;20109;-75
2023/05/06 11:22:52;;;;;;;38.72;36.67;;;21.10;99.90;;;;;;4962383;28;20054;-75
2023/05/06 11:25:39;;;;;;;43.38;40.97;;;21.10;99.90;;;;;;4961358;28;20138;-75
2023/05/06 11:28:07;;;;;;;41.13;38.53;;;21.30;99.90;;;;;;4950888;28;20039;-76
2023/05/06 11:30:36;;;;;;;40.55;38.35;;;21.60;99.90;;;;;;4961435;28;20039;-75
2023/05/06 11:33:04;;;;;;;43.97;41.47;;;21.60;99.90;;;;;;4959317;28;20593;-74
2023/05/06 11:35:37;;;;;;;41.47;39.17;;;21.10;99.90;;;;;;4961785;28;20039;-75
2023/05/06 11:38:04;;;;;;;40.50;38.15;;;20.90;99.90;;;;;;4943083;28;20106;-75
2023/05/06 11:40:31;;;;;;;41.05;38.55;;;20.50;99.90;;;;;;4960818;28;20055;-74
2023/05/06 11:43:12;;;;;;;42.60;40.10;;;20.60;99.90;;;;;;4930364;28;20039;-77
2023/05/06 11:45:44;;;;;;;42.38;39.78;;;20.60;99.90;;;;;;4961617;28;20604;-74
2023/05/06 11:48:12;;;;;;;44.03;41.53;;;20.30;99.90;;;;;;4960238;28;20547;-75
2023/05/06 11:50:44;;;;;;;43.85;41.35;;;19.70;99.90;;;;;;4948599;28;20043;-77
2023/05/06 11:53:12;;;;;;;42.35;39.95;;;19.50;99.90;;;;;;4961712;28;20041;-73
2023/05/06 11:55:39;;;;;;;43.95;41.30;;;19.80;99.90;;;;;;4942748;28;20039;-76
2023/05/06 11:58:05;;;;;;;41.38;38.97;;;20.20;99.90;;;;;;4954522;28;20054;-73
2023/05/06 12:00:32;;;;;;;43.95;41.13;;;20.40;99.90;;;;;;4963339;28;20043;-76
2023/05/06 12:02:58;;;;;;;39.50;37.25;;;20.70;99.90;;;;;;4961579;28;20045;-76
2023/05/06 12:05:27;;;;;;;37.65;35.45;;;20.90;99.90;;;;;;4948395;28;20302;-75
2023/05/06 12:07:54;;;;;;;41.72;39.30;;;20.90;99.90;;;;;;4962345;28;20595;-75
2023/05/06 12:10:21;;;;;;;41.60;39.35;;;21.20;99.90;;;;;;4945513;28;20051;-77
2023/05/06 12:12:48;;;;;;;41.97;39.67;;;21.40;99.90;;;;;;4960226;28;20541;-73
2023/05/06 12:15:15;;;;;;;44.40;41.80;;;21.20;99.90;;;;;;4948230;28;20532;-78
2023/05/06 12:17:41;;;;;;;44.78;42.22;;;21.60;99.90;;;;;;4961420;28;20046;-74
2023/05/06 12:20:10;;;;;;;43.88;41.33;;;21.40;99.90;;;;;;4950391;28;20444;-73
2023/05/06 12:22:37;;;;;;;45.85;43.20;;;21.50;99.90;;;;;;4944935;28;20420;-75
2023/05/06 12:25:14;;;;;;;41.75;39.55;;;21.40;99.90;;;;;;4961467;28;20038;-76
2023/05/06 12:27:41;;;;;;;42.35;39.83;;;21.70;99.90;;;;;;4964253;28;20078;-75
2023/05/06 12:30:08;;;;;;;42.05;39.75;;;22.30;99.90;;;;;;4969767;28;20042;-74
2023/05/06 12:32:55;;;;;;;43.15;40.63;;;22.40;99.90;;;;;;4967464;28;20053;-73
2023/05/06 12:35:28;;;;;;;43.00;40.50;;;22.70;99.90;;;;;;4969472;28;20054;-75